Latest Weather Observations for Swanbourne

IDW60801

Issued at 8:05 pm WST Saturday 30 August 2014 (issued every 30 minutes, with the page automatically refreshed every 10 minutes)

About weather observations | Map of weather stations | Latest weather observations for WA | Other Formats
Station Details ID: 009215 Name: SWANBOURNE Lat: -31.96 Lon: 115.76 Height: 40.96 m
Data from the previous 72 hours. | See also: Recent months at Swanbourne
Date/Time
WST
Temp
°C
App
Temp
°C
Dew
Point
Rel
Hum
%
Delta-T
°C
Wind Press
QNH
hPa
Press
MSL
hPa
Rain
since 9 am
mm
Dir
 
Spd
km/h
Gust
km/h
Spd
kts
Gust
kts
30/08:00pm 15.9 12.7 8.4 61 3.8 WSW 15 22 8 12 - - 0.0
30/07:30pm 15.9 12.6 8.2 60 3.9 WSW 15 24 8 13 - - 0.0
30/07:00pm 15.9 13.2 8.9 63 3.6 WSW 13 20 7 11 - - 0.0
30/06:30pm 15.8 13.0 8.5 62 3.7 WSW 13 20 7 11 - - 0.0
30/06:00pm 15.8 12.7 8.8 63 3.6 WSW 15 22 8 12 - - 0.0
30/05:30pm 16.3 13.2 9.0 62 3.8 WSW 15 22 8 12 - - 0.0
30/05:00pm 16.6 14.0 9.5 63 3.7 WSW 13 20 7 11 - - 0.0
30/04:30pm 16.7 15.4 11.2 70 3.0 SW 9 15 5 8 - - 0.0
30/04:00pm 16.9 15.2 11.2 69 3.1 SSW 11 17 6 9 - - 0.0
30/03:30pm 17.5 15.4 11.3 67 3.4 SSW 13 19 7 10 - - 0.0
30/03:00pm 18.7 17.1 12.9 69 3.3 SSW 13 20 7 11 - - 0.0
30/02:30pm 17.5 16.1 12.2 71 2.9 SW 11 17 6 9 - - 0.0
30/02:00pm 18.2 16.9 12.6 70 3.1 SSW 11 19 6 10 - - 0.0
30/01:30pm 18.6 17.6 13.5 72 2.9 SSW 11 15 6 8 - - 0.0
30/01:00pm 18.1 17.2 12.5 70 3.1 SW 9 17 5 9 - - 0.0
30/12:30pm 18.1 17.3 13.0 72 2.9 SW 9 17 5 9 - - 0.0
30/12:00pm 18.4 17.9 13.9 75 2.6 SSW 9 17 5 9 - - 0.0
30/11:30am 16.7 16.8 14.5 87 1.3 SSW 7 11 4 6 - - 0.0
30/11:00am 16.1 16.4 15.1 94 0.6 S 7 13 4 7 - - 0.0
30/10:30am 15.4 14.9 14.8 96 0.3 SSW 11 20 6 11 - - 0.0
30/10:00am 16.2 16.5 15.9 98 0.2 S 9 13 5 7 - - 0.0
30/09:30am 16.3 17.0 16.0 98 0.2 SSE 7 15 4 8 - - 0.0
30/09:00am 15.9 15.7 15.6 98 0.2 S 11 17 6 9 - - 51.0
30/08:30am 15.3 14.1 15.0 98 0.2 S 15 26 8 14 - - 51.0
30/08:00am 15.1 14.2 14.8 98 0.2 S 13 20 7 11 - - 50.8
30/07:30am 15.5 14.7 15.2 98 0.2 SSW 13 20 7 11 - - 50.6
30/07:00am 15.6 13.5 15.3 98 0.2 SW 20 33 11 18 - - 50.6
30/06:30am 15.4 15.0 15.1 98 0.2 S 11 15 6 8 - - 50.6
30/06:00am 15.6 14.5 15.3 98 0.2 SSW 15 22 8 12 - - 50.4
30/05:30am 16.0 14.3 15.7 98 0.2 SW 19 28 10 15 - - 50.4
30/05:00am 16.0 14.3 15.7 98 0.2 SW 19 28 10 15 - - 50.2
30/04:30am 16.0 14.7 15.7 98 0.2 W 17 24 9 13 - - 50.0
30/04:00am 16.6 14.8 16.1 97 0.3 WNW 20 30 11 16 - - 49.0
30/03:30am 16.4 14.6 16.1 98 0.2 NW 20 30 11 16 - - 49.0
30/03:00am 16.3 14.1 16.0 98 0.2 WNW 22 32 12 17 - - 49.0
30/02:30am 16.4 14.6 16.1 98 0.2 NW 20 30 11 16 - - 49.0
30/02:00am 16.1 13.5 15.8 98 0.2 WNW 24 33 13 18 - - 48.8
30/01:30am 16.1 14.8 15.8 98 0.2 WNW 17 24 9 13 - - 48.0
30/01:00am 15.6 13.7 15.3 98 0.2 WNW 19 28 10 15 - - 47.8
30/12:30am 15.5 14.0 15.2 98 0.2 NW 17 26 9 14 - - 47.8
30/12:00am 15.0 14.4 14.7 98 0.2 NW 11 15 6 8 - - 47.2
 
Date/Time
WST
Temp
°C
App
Temp
°C
Dew
Point
Rel
Hum
%
Delta-T
°C
Wind Press
QNH
hPa
Press
MSL
hPa
Rain
since 9 am
mm
Dir
 
Spd
km/h
Gust
km/h
Spd
kts
Gust
kts
29/11:30pm 15.0 12.9 14.7 98 0.2 W 19 28 10 15 - - 45.6
29/11:00pm 15.1 12.9 14.8 98 0.2 W 20 28 11 15 - - 44.0
29/10:30pm 15.1 15.3 14.8 98 0.2 NW 7 13 4 7 - - 42.2
29/10:00pm 15.1 14.9 14.8 98 0.2 W 9 20 5 11 - - 41.0
29/09:30pm 15.1 15.5 14.8 98 0.2 W 6 9 3 5 - - 37.6
29/09:00pm 15.3 15.6 15.0 98 0.2 WNW 7 13 4 7 - - 37.0
29/08:30pm 15.4 14.6 15.1 98 0.2 WNW 13 19 7 10 - - 36.6
29/08:00pm 16.3 14.5 16.0 98 0.2 WNW 20 28 11 15 - - 34.6
29/07:30pm 16.2 14.9 15.9 98 0.2 WNW 17 26 9 14 - - 33.0
29/07:00pm 15.9 14.5 15.6 98 0.2 W 17 26 9 14 - - 32.2
29/06:30pm 15.7 13.7 15.4 98 0.2 W 20 33 11 18 - - 28.4
29/06:00pm 17.1 15.2 16.8 98 0.2 WNW 22 33 12 18 - - 17.2
29/05:30pm 17.5 14.7 17.2 98 0.2 WNW 28 41 15 22 - - 14.0
29/05:00pm 17.3 13.4 17.0 98 0.2 NW 33 48 18 26 - - 13.8
29/04:30pm 17.6 14.4 17.3 98 0.2 NW 30 48 16 26 - - 12.8
29/04:00pm 18.1 14.1 16.8 92 0.8 WNW 33 57 18 31 - - 10.8
29/03:53pm 18.3 14.8 16.5 89 1.1 WNW 30 50 16 27 - - 10.8
29/03:30pm 18.5 16.3 16.8 90 1.0 WNW 24 33 13 18 - - 10.6
29/03:00pm 18.2 14.5 16.0 87 1.3 WNW 30 41 16 22 - - 10.6
29/02:30pm 17.9 15.7 16.8 93 0.7 WNW 24 35 13 19 - - 10.6
29/02:00pm 17.4 15.5 16.8 96 0.4 NW 22 32 12 17 - - 10.6
29/01:30pm 17.5 16.7 17.2 98 0.2 WNW 17 22 9 12 - - 10.6
29/01:00pm 17.2 17.1 16.9 98 0.2 WNW 13 19 7 10 - - 10.6
29/12:30pm 16.7 15.2 16.4 98 0.2 WSW 19 28 10 15 - - 10.6
29/12:00pm 17.3 13.1 15.8 91 0.9 W 32 44 17 24 - - 2.2
29/11:30am 19.1 14.6 16.5 85 1.6 NW 35 46 19 25 - - 0.2
29/11:00am 21.0 16.0 16.0 73 3.0 NW 37 52 20 28 - - 0.0
29/10:30am 20.4 15.8 16.0 76 2.6 NW 35 48 19 26 - - 0.0
29/10:00am 20.5 15.4 15.9 75 2.8 NNW 37 46 20 25 - - 0.0
29/09:30am 20.2 15.6 16.0 77 2.5 NNW 35 48 19 26 - - 0.0
29/09:00am 19.4 17.3 16.1 81 2.0 N 22 35 12 19 - - 0.0
29/08:30am 19.0 16.8 15.9 82 1.8 N 22 33 12 18 - - 0.0
29/08:00am 18.7 16.4 15.6 82 1.8 N 22 35 12 19 - - 0.0
29/07:30am 19.2 16.2 15.9 81 2.0 NNW 26 43 14 23 - - 0.0
29/07:00am 18.4 16.8 16.6 89 1.1 NNW 20 33 11 18 - - 0.0
29/06:30am 18.4 16.7 16.2 87 1.3 NNW 20 32 11 17 - - 0.0
29/06:00am 18.4 16.5 16.6 89 1.1 NNW 22 35 12 19 - - 0.0
29/05:30am 17.7 16.4 15.9 89 1.1 N 17 24 9 13 - - 0.0
29/05:00am 17.7 15.9 15.9 89 1.1 N 20 33 11 18 - - 0.0
29/04:30am 17.7 16.1 15.9 89 1.1 N 19 28 10 15 - - 0.0
29/04:00am 17.9 16.6 15.9 88 1.2 N 17 30 9 16 - - 0.0
29/03:30am 18.1 17.3 16.1 88 1.2 N 15 22 8 12 - - 0.0
29/03:00am 19.1 16.7 16.3 84 1.7 NNW 24 37 13 20 - - 0.0
29/02:30am 19.0 17.0 16.4 85 1.6 NNW 22 30 12 16 - - 0.0
29/02:00am 18.8 16.7 16.2 85 1.6 NNW 22 32 12 17 - - 0.0
29/01:30am 18.7 17.1 16.5 87 1.3 NNW 20 30 11 16 - - 0.0
29/01:00am 18.1 17.7 17.1 94 0.6 NNW 15 24 8 13 - - 0.0
29/12:30am 17.9 18.2 17.1 95 0.5 NNW 11 17 6 9 - - 0.0
29/12:00am 18.0 17.6 16.2 89 1.1 N 13 19 7 10 - - 0.0
 
Date/Time
WST
Temp
°C
App
Temp
°C
Dew
Point
Rel
Hum
%
Delta-T
°C
Wind Press
QNH
hPa
Press
MSL
hPa
Rain
since 9 am
mm
Dir
 
Spd
km/h
Gust
km/h
Spd
kts
Gust
kts
28/11:30pm 18.5 18.0 15.9 85 1.5 N 13 20 7 11 - - 0.0
28/11:00pm 19.0 17.7 15.7 81 2.0 NNW 17 24 9 13 - - 0.0
28/10:30pm 18.9 17.6 15.8 82 1.8 NNW 17 22 9 12 - - 0.0
28/10:00pm 18.9 17.6 15.8 82 1.8 NNW 17 26 9 14 - - 0.0
28/09:30pm 18.9 17.3 16.0 83 1.7 NNW 19 26 10 14 - - 0.0
28/09:00pm 19.0 18.3 17.3 90 1.0 NW 17 24 9 13 - - 0.0
28/08:30pm 19.2 18.3 17.7 91 0.9 NW 19 26 10 14 - - 0.0
28/08:00pm 19.3 18.8 17.8 91 0.9 NNW 17 22 9 12 - - 0.0
28/07:30pm 19.1 18.8 17.4 90 1.0 NNW 15 20 8 11 - - 0.0
28/07:00pm 19.0 18.5 17.0 88 1.2 NNW 15 19 8 10 - - 0.0
28/06:30pm 19.2 18.7 16.8 86 1.5 NNW 15 20 8 11 - - 0.0
28/06:00pm 19.4 18.3 16.4 83 1.8 NNW 17 22 9 12 - - 0.0
28/05:30pm 19.6 18.6 15.7 78 2.3 NNW 15 20 8 11 - - 0.0
28/05:00pm 19.8 19.4 16.1 79 2.2 NNW 13 20 7 11 - - 0.0
28/04:30pm 20.2 19.3 15.8 76 2.6 NNW 15 20 8 11 - - 0.0
28/04:00pm 20.4 19.0 15.6 74 2.9 NNW 17 22 9 12 - - 0.0
28/03:30pm 21.1 19.6 15.2 69 3.5 NNW 17 24 9 13 - - 0.0
28/03:00pm 21.3 19.6 14.7 66 3.9 NW 17 24 9 13 - - 0.0
28/02:30pm 22.4 19.3 13.5 57 5.2 NNW 22 30 12 16 - - 0.0
28/02:00pm 22.6 20.5 13.7 57 5.2 NW 17 26 9 14 - - 0.0
28/01:30pm 21.4 18.4 12.5 57 5.0 NNW 20 28 11 15 - - 0.0
28/01:00pm 22.5 19.3 11.9 51 6.0 NNW 20 30 11 16 - - 0.0
28/12:30pm 22.1 18.1 10.3 47 6.5 NNW 22 32 12 17 - - 0.0
28/12:00pm 21.7 18.8 11.1 51 5.9 NNW 17 28 9 15 - - 0.0
28/11:30am 20.5 16.8 9.4 49 5.9 NNW 19 26 10 14 - - 0.0
28/11:00am 20.3 16.7 8.3 46 6.3 N 17 26 9 14 - - 0.0
28/10:30am 19.9 16.3 8.3 47 6.0 N 17 26 9 14 - - 0.0
28/10:00am 18.7 15.0 7.8 49 5.6 N 17 28 9 15 - - 0.0
28/09:30am 17.1 14.7 8.5 57 4.4 N 11 17 6 9 - - 0.0
28/09:00am 16.5 13.7 8.5 59 4.1 N 13 19 7 10 - - 0.0
28/08:30am 15.7 12.9 8.4 62 3.7 NNE 13 17 7 9 - - 0.0
28/08:00am 15.2 12.7 8.2 63 3.5 NNE 11 17 6 9 - - 0.0
28/07:30am 14.4 11.9 8.1 66 3.1 NNE 11 17 6 9 - - 0.0
28/07:00am 14.1 11.6 8.1 67 3.0 NNE 11 19 6 10 - - 0.0
28/06:30am 14.0 11.1 8.0 67 3.0 NE 13 22 7 12 - - 0.0
28/06:00am 13.8 10.9 8.0 68 2.9 NE 13 22 7 12 - - 0.0
28/05:30am 13.6 10.6 7.8 68 2.9 NE 13 20 7 11 - - 0.0
28/05:00am 13.7 10.4 7.9 68 2.9 NE 15 26 8 14 - - 0.0
28/04:30am 13.6 11.1 8.4 71 2.6 NE 11 19 6 10 - - 0.0
28/04:00am 13.6 11.6 8.7 72 2.5 NE 9 13 5 7 - - 0.0
28/03:30am 13.1 11.2 9.0 76 2.1 ENE 9 11 5 6 - - 0.0
28/03:00am 13.0 11.1 9.1 77 2.0 ENE 9 13 5 7 - - 0.0
28/02:30am 13.0 10.7 9.1 77 2.0 ENE 11 15 6 8 - - 0.0
28/02:00am 12.9 11.0 9.2 78 1.9 E 9 11 5 6 - - 0.0
28/01:30am 12.9 11.1 9.4 79 1.8 E 9 11 5 6 - - 0.0
28/01:00am 13.0 11.2 9.4 79 1.8 E 9 13 5 7 - - 0.0
28/12:30am 13.0 11.2 9.4 79 1.8 ENE 9 15 5 8 - - 0.0
28/12:00am 12.6 10.8 9.6 82 1.5 ENE 9 15 5 8 - - 0.0
 
Date/Time
WST
Temp
°C
App
Temp
°C
Dew
Point
Rel
Hum
%
Delta-T
°C
Wind Press
QNH
hPa
Press
MSL
hPa
Rain
since 9 am
mm
Dir
 
Spd
km/h
Gust
km/h
Spd
kts
Gust
kts
27/11:30pm 12.6 10.8 9.4 81 1.6 ENE 9 13 5 7 - - 0.0
27/11:00pm 12.6 10.8 9.4 81 1.6 ENE 9 13 5 7 - - 0.0
27/10:30pm 12.9 11.1 9.4 79 1.8 E 9 11 5 6 - - 0.0
27/10:00pm 13.4 11.7 9.8 79 1.9 ENE 9 11 5 6 - - 0.0
27/09:30pm 13.7 12.1 10.1 79 1.9 ENE 9 13 5 7 - - 0.0
27/09:00pm 14.1 12.5 10.1 77 2.1 ENE 9 11 5 6 - - 0.0
27/08:30pm 14.3 12.6 9.9 75 2.3 ENE 9 11 5 6 - - 0.0

Other Formats:

Comma delimited format used in spreadsheet applications
http://www.bom.gov.au/fwo/IDW60801/IDW60801.94614.axf

JavaScript Object Notation format (JSON) in row-major order
http://www.bom.gov.au/fwo/IDW60801/IDW60801.94614.json